createdAt,value
2018-04-26T00:01:44.976Z,68.05
2018-04-26T00:04:15.720Z,68.22
2018-04-26T00:06:46.517Z,67.98
2018-04-26T00:09:17.283Z,68.03
2018-04-26T00:11:48.059Z,68.14
2018-04-26T00:14:18.800Z,68.18
2018-04-26T00:16:49.559Z,68.58
2018-04-26T00:19:20.313Z,68.67
2018-04-26T00:21:51.109Z,68.34
2018-04-26T00:24:21.864Z,68.62
2018-04-26T00:26:52.685Z,68.63
2018-04-26T00:29:23.439Z,68.80
2018-04-26T00:31:54.276Z,68.87
2018-04-26T00:34:25.043Z,68.67
2018-04-26T00:36:55.816Z,68.58
2018-04-26T00:39:26.573Z,68.76
2018-04-26T00:41:57.411Z,69.03
2018-04-26T00:44:28.179Z,69.08
2018-04-26T00:46:58.936Z,69.11
2018-04-26T00:49:29.687Z,69.55
2018-04-26T00:52:00.475Z,69.53
2018-04-26T00:54:31.225Z,69.63
2018-04-26T00:57:02.011Z,70.18
2018-04-26T00:59:32.746Z,70.30
2018-04-26T01:02:03.566Z,70.69
2018-04-26T01:04:34.358Z,70.58
2018-04-26T01:07:05.156Z,70.41
2018-04-26T01:09:35.939Z,70.03
2018-04-26T01:12:06.724Z,69.38
2018-04-26T01:14:37.496Z,68.61
2018-04-26T01:17:08.293Z,67.97
2018-04-26T01:19:39.110Z,67.31
2018-04-26T01:22:09.899Z,67.58
2018-04-26T01:24:40.687Z,68.01
2018-04-26T01:27:11.466Z,67.92
2018-04-26T01:29:42.246Z,67.92
2018-04-26T01:32:13.040Z,67.62
2018-04-26T01:34:43.821Z,66.54
2018-04-26T01:37:26.856Z,65.98
2018-04-26T01:39:57.622Z,66.43
2018-04-26T01:42:28.401Z,66.79
2018-04-26T01:44:59.157Z,67.62
2018-04-26T01:47:29.948Z,67.52
2018-04-26T01:50:00.715Z,67.51
2018-04-26T01:52:31.504Z,67.25
2018-04-26T01:55:02.299Z,67.11
2018-04-26T01:57:33.077Z,66.92
2018-04-26T02:00:03.879Z,66.63
2018-04-26T02:02:34.663Z,66.27
2018-04-26T02:05:05.451Z,66.44
2018-04-26T02:07:36.218Z,66.95
2018-04-26T02:10:07.012Z,66.72
2018-04-26T02:12:37.791Z,67.15
2018-04-26T02:15:08.551Z,66.73
2018-04-26T02:17:39.329Z,66.42
2018-04-26T02:20:10.104Z,66.42
2018-04-26T02:22:40.895Z,66.51
2018-04-26T02:25:11.684Z,67.15
2018-04-26T02:27:42.472Z,67.81
2018-04-26T02:30:13.237Z,67.65
2018-04-26T02:32:44.023Z,68.21
2018-04-26T02:35:14.821Z,68.64
2018-04-26T02:37:45.602Z,68.50
2018-04-26T02:40:16.383Z,68.09
2018-04-26T02:42:47.168Z,67.77
2018-04-26T02:45:17.958Z,67.85
2018-04-26T02:47:48.743Z,67.62
2018-04-26T02:50:19.523Z,67.31
2018-04-26T02:52:50.330Z,67.40
2018-04-26T02:55:21.095Z,66.11
2018-04-26T02:57:51.892Z,66.16
2018-04-26T03:00:22.656Z,66.17
2018-04-26T03:02:53.439Z,66.50
2018-04-26T03:05:24.216Z,66.91
2018-04-26T03:07:55.016Z,66.51
2018-04-26T03:10:25.792Z,66.58
2018-04-26T03:12:56.591Z,65.44
2018-04-26T03:15:27.366Z,65.37
2018-04-26T03:17:58.136Z,65.04
2018-04-26T03:20:28.932Z,65.18
2018-04-26T03:22:59.707Z,65.91
2018-04-26T03:25:30.464Z,64.74
2018-04-26T03:28:01.241Z,64.50
2018-04-26T03:30:32.005Z,64.48
2018-04-26T03:33:02.789Z,64.40
2018-04-26T03:35:33.573Z,64.00
2018-04-26T03:38:04.368Z,64.36
2018-04-26T03:40:35.148Z,64.51
2018-04-26T03:43:05.932Z,64.40
2018-04-26T03:45:36.720Z,64.30
2018-04-26T03:48:07.508Z,64.74
2018-04-26T03:50:38.291Z,64.89
2018-04-26T03:53:09.096Z,64.98
2018-04-26T03:55:39.862Z,65.25
2018-04-26T03:58:10.718Z,65.34
2018-04-26T04:00:53.799Z,65.35
2018-04-26T04:03:36.984Z,65.54
2018-04-26T04:06:13.895Z,65.92
2018-04-26T04:08:44.680Z,66.68
2018-04-26T04:11:15.459Z,66.61
2018-04-26T04:13:46.303Z,65.08
2018-04-26T04:16:17.047Z,63.67
2018-04-26T04:18:47.841Z,63.44
2018-04-26T04:21:18.641Z,63.35
2018-04-26T04:23:49.496Z,63.29
2018-04-26T04:26:20.281Z,63.68
2018-04-26T04:28:51.097Z,63.29
2018-04-26T04:31:21.863Z,63.71
2018-04-26T04:33:52.669Z,63.62
2018-04-26T04:36:23.436Z,64.19
2018-04-26T04:38:54.213Z,64.40
2018-04-26T04:41:24.974Z,65.15
2018-04-26T04:43:55.760Z,65.38
2018-04-26T04:46:26.568Z,64.63
2018-04-26T04:48:57.353Z,64.83
2018-04-26T04:51:28.128Z,64.42
2018-04-26T04:53:58.912Z,65.09
2018-04-26T04:56:29.710Z,65.63
2018-04-26T04:59:00.481Z,66.10
2018-04-26T05:01:31.282Z,66.40
2018-04-26T05:04:02.064Z,68.04
2018-04-26T05:06:32.833Z,70.13
2018-04-26T05:09:03.659Z,71.62
2018-04-26T05:11:34.436Z,72.61
2018-04-26T05:14:05.206Z,72.96
2018-04-26T05:16:35.964Z,73.88
2018-04-26T05:19:06.732Z,74.86
2018-04-26T05:21:37.508Z,74.78
2018-04-26T05:24:08.308Z,74.76
2018-04-26T05:26:39.080Z,75.97
2018-04-26T05:29:09.949Z,74.73
2018-04-26T05:31:40.717Z,72.91
2018-04-26T05:34:11.503Z,74.53
2018-04-26T05:36:42.282Z,73.08
2018-04-26T05:39:13.080Z,73.35
2018-04-26T05:41:43.913Z,74.09
2018-04-26T05:44:14.743Z,75.19
2018-04-26T05:46:45.535Z,77.05
2018-04-26T05:49:16.316Z,78.46
2018-04-26T05:51:47.180Z,79.22
2018-04-26T05:54:17.982Z,79.18
2018-04-26T05:56:48.752Z,80.12
2018-04-26T05:59:19.551Z,82.08
2018-04-26T06:01:50.343Z,83.35
2018-04-26T06:04:21.178Z,83.87
2018-04-26T06:06:51.988Z,84.67
2018-04-26T06:09:22.813Z,84.63
2018-04-26T06:11:53.608Z,85.33
2018-04-26T06:14:24.466Z,86.27
2018-04-26T06:16:55.295Z,86.28
2018-04-26T06:19:26.109Z,87.93
2018-04-26T06:21:56.867Z,84.83
2018-04-26T06:24:27.713Z,84.48
2018-04-26T06:26:58.486Z,85.70
2018-04-26T06:29:29.304Z,84.50
2018-04-26T06:32:00.078Z,82.27
2018-04-26T06:34:30.886Z,81.10
2018-04-26T06:37:01.709Z,81.56
2018-04-26T06:39:32.512Z,75.78
2018-04-26T06:42:03.320Z,76.00
2018-04-26T06:44:34.107Z,74.97
2018-04-26T06:47:04.891Z,74.92
2018-04-26T06:49:35.683Z,69.14
2018-04-26T06:52:06.476Z,70.05
2018-04-26T06:54:37.254Z,74.77
2018-04-26T06:57:08.025Z,75.37
2018-04-26T06:59:38.833Z,76.17
2018-04-26T07:02:09.585Z,73.61
2018-04-26T07:04:40.420Z,74.22
2018-04-26T07:07:11.217Z,73.39
2018-04-26T07:09:42.013Z,72.42
2018-04-26T07:12:12.853Z,70.49
2018-04-26T07:14:43.612Z,67.19
2018-04-26T07:17:14.372Z,63.05
2018-04-26T07:19:45.171Z,61.91
2018-04-26T07:22:15.947Z,65.44
2018-04-26T07:24:46.769Z,64.42
2018-04-26T07:27:17.538Z,62.13
2018-04-26T07:29:48.320Z,62.06
2018-04-26T07:32:19.097Z,62.67
2018-04-26T07:34:49.987Z,62.90
2018-04-26T07:37:20.663Z,64.80
2018-04-26T07:39:51.496Z,65.36
2018-04-26T07:42:22.264Z,64.82
2018-04-26T07:44:53.159Z,64.40
2018-04-26T07:47:23.919Z,65.17
2018-04-26T07:49:54.750Z,60.82
2018-04-26T07:52:25.523Z,61.94
2018-04-26T07:54:56.352Z,57.24
2018-04-26T07:57:27.197Z,54.83
2018-04-26T07:59:58.213Z,54.69
2018-04-26T08:02:29.003Z,55.81
2018-04-26T08:04:59.911Z,56.41
2018-04-26T08:07:30.697Z,59.51
2018-04-26T08:10:01.491Z,59.41
2018-04-26T08:12:32.303Z,60.52
2018-04-26T08:15:03.128Z,62.08
2018-04-26T08:17:33.945Z,63.60
2018-04-26T08:20:04.778Z,63.47
2018-04-26T08:22:35.608Z,62.40
2018-04-26T08:25:07.352Z,60.77
2018-04-26T08:27:38.175Z,57.68
2018-04-26T08:30:08.995Z,54.19
2018-04-26T08:32:39.802Z,54.76
2018-04-26T08:35:10.656Z,53.70
2018-04-26T08:37:41.459Z,51.85
2018-04-26T08:40:12.254Z,52.86
2018-04-26T08:42:43.183Z,53.06
2018-04-26T08:45:14.095Z,50.85
2018-04-26T08:47:44.878Z,50.09
2018-04-26T08:50:15.648Z,46.37
2018-04-26T08:52:46.460Z,43.47
2018-04-26T08:55:17.257Z,45.03
2018-04-26T08:57:48.027Z,43.70
2018-04-26T09:00:18.825Z,45.29
2018-04-26T09:02:49.602Z,43.04
2018-04-26T09:05:20.411Z,41.61
2018-04-26T09:07:51.171Z,39.53
2018-04-26T09:10:21.976Z,40.10
2018-04-26T09:12:52.807Z,41.85
2018-04-26T09:15:23.599Z,41.73
2018-04-26T09:17:55.435Z,41.46
2018-04-26T09:20:26.249Z,40.26
2018-04-26T09:22:57.042Z,40.87
2018-04-26T09:25:27.883Z,40.50
2018-04-26T09:27:58.642Z,42.33
2018-04-26T09:30:29.440Z,42.37
2018-04-26T09:33:00.207Z,42.00
2018-04-26T09:35:30.995Z,41.82
2018-04-26T09:38:01.784Z,40.71
2018-04-26T09:40:32.600Z,40.57
2018-04-26T09:43:03.394Z,38.73
2018-04-26T09:45:34.199Z,38.71
2018-04-26T09:48:04.955Z,36.95
2018-04-26T09:50:35.743Z,34.95
2018-04-26T09:53:06.503Z,36.95
2018-04-26T09:55:37.339Z,35.37
2018-04-26T09:58:08.119Z,34.21
2018-04-26T10:00:41.839Z,34.02
2018-04-26T10:03:12.596Z,36.25
2018-04-26T10:08:46.975Z,37.20
2018-04-26T10:11:17.726Z,37.22
2018-04-26T10:13:48.491Z,37.28
2018-04-26T10:16:19.280Z,34.96
2018-04-26T10:18:50.097Z,36.24
2018-04-26T10:21:20.871Z,34.75
2018-04-26T10:23:51.646Z,36.55
2018-04-26T10:26:22.432Z,37.56
2018-04-26T10:28:53.243Z,35.88
2018-04-26T10:31:24.031Z,35.33
2018-04-26T10:33:54.815Z,34.34
2018-04-26T10:36:25.607Z,34.51
2018-04-26T10:38:56.401Z,34.63
2018-04-26T10:41:27.228Z,32.76
2018-04-26T10:43:58.019Z,32.26
2018-04-26T10:46:28.841Z,32.35
2018-04-26T10:48:59.619Z,33.93
2018-04-26T10:51:30.410Z,33.09
2018-04-26T10:54:01.202Z,33.03
2018-04-26T10:56:31.992Z,34.43
2018-04-26T10:59:02.760Z,34.50
2018-04-26T11:01:33.551Z,36.21
2018-04-26T11:04:04.340Z,35.98
2018-04-26T11:06:35.139Z,33.50
2018-04-26T11:09:05.996Z,33.37
2018-04-26T11:11:36.819Z,34.42
2018-04-26T11:14:07.532Z,34.68
2018-04-26T11:16:38.347Z,35.43
2018-04-26T11:19:09.147Z,34.74
2018-04-26T11:21:39.927Z,34.70
2018-04-26T11:24:10.700Z,32.77
2018-04-26T11:26:41.512Z,33.91
2018-04-26T11:29:12.312Z,31.77
2018-04-26T11:31:43.077Z,31.64
2018-04-26T11:34:13.842Z,32.19
2018-04-26T11:36:44.817Z,32.10
2018-04-26T11:39:15.591Z,31.69
2018-04-26T11:41:46.681Z,31.79
2018-04-26T11:44:17.468Z,31.71
2018-04-26T11:46:48.357Z,31.30
2018-04-26T11:49:19.100Z,31.06
2018-04-26T11:51:49.936Z,30.98
2018-04-26T11:54:20.708Z,30.87
2018-04-26T11:56:51.532Z,30.13
2018-04-26T11:59:22.306Z,31.38
2018-04-26T12:01:53.088Z,31.40
2018-04-26T12:04:23.895Z,32.51
2018-04-26T12:06:54.675Z,31.98
2018-04-26T12:09:25.538Z,31.93
2018-04-26T12:11:56.325Z,31.84
2018-04-26T12:14:27.088Z,32.22
2018-04-26T12:16:57.899Z,31.93
2018-04-26T12:19:28.679Z,32.30
2018-04-26T12:21:59.477Z,32.04
2018-04-26T12:24:30.264Z,32.27
2018-04-26T12:27:01.096Z,32.78
2018-04-26T12:29:31.872Z,32.42
2018-04-26T12:32:02.739Z,34.57
2018-04-26T12:34:33.515Z,33.02
2018-04-26T12:37:04.293Z,33.54
2018-04-26T12:39:35.076Z,31.62
2018-04-26T12:42:05.928Z,30.66
2018-04-26T12:44:37.537Z,30.77
2018-04-26T12:47:08.348Z,31.52
2018-04-26T12:49:39.222Z,32.41
2018-04-26T12:52:10.044Z,32.05
2018-04-26T12:54:41.477Z,32.21
2018-04-26T12:57:12.460Z,31.91
2018-04-26T12:59:43.260Z,32.03
2018-04-26T13:02:14.060Z,30.53
2018-04-26T13:04:44.813Z,32.85
2018-04-26T13:07:15.635Z,31.87
2018-04-26T13:09:46.401Z,34.42
2018-04-26T13:12:17.288Z,35.39
2018-04-26T13:14:49.137Z,35.42
2018-04-26T13:17:21.051Z,34.20
2018-04-26T13:19:51.831Z,33.64
2018-04-26T13:22:22.612Z,34.67
2018-04-26T13:24:53.393Z,35.33
2018-04-26T13:27:24.241Z,35.88
2018-04-26T13:29:55.029Z,34.37
2018-04-26T13:32:25.804Z,30.24
2018-04-26T13:34:56.559Z,26.94
2018-04-26T13:37:27.415Z,26.74
2018-04-26T13:39:58.199Z,26.74
2018-04-26T13:42:29.007Z,25.19
2018-04-26T13:44:59.778Z,25.25
2018-04-26T13:47:30.584Z,24.93
2018-04-26T13:50:01.498Z,26.27
2018-04-26T13:52:32.376Z,28.90
2018-04-26T13:55:04.271Z,31.38
2018-04-26T13:57:35.107Z,32.19
2018-04-26T14:00:05.914Z,32.69
2018-04-26T14:02:36.709Z,28.92
2018-04-26T14:05:07.504Z,29.38
2018-04-26T14:07:38.296Z,27.35
2018-04-26T14:10:09.092Z,24.91
2018-04-26T14:12:39.898Z,26.85
2018-04-26T14:15:10.683Z,25.30
2018-04-26T14:17:41.495Z,25.53
2018-04-26T14:20:12.249Z,25.85
2018-04-26T14:22:43.045Z,24.94
2018-04-26T14:25:13.842Z,26.74
2018-04-26T14:27:44.673Z,25.80
2018-04-26T14:30:15.455Z,27.58
2018-04-26T14:32:46.284Z,26.14
2018-04-26T14:35:17.039Z,24.49
2018-04-26T14:37:47.812Z,24.29
2018-04-26T14:40:18.599Z,24.25
2018-04-26T14:42:49.374Z,25.35
2018-04-26T14:45:20.192Z,25.39
2018-04-26T14:47:50.979Z,26.28
2018-04-26T14:50:21.849Z,27.54
2018-04-26T14:52:52.693Z,25.23
2018-04-26T14:55:23.507Z,25.19
2018-04-26T14:57:54.294Z,24.89
2018-04-26T15:00:25.076Z,25.30
2018-04-26T15:02:55.860Z,25.08
2018-04-26T15:05:26.694Z,23.81
2018-04-26T15:07:57.593Z,25.09
2018-04-26T15:10:28.347Z,24.99
2018-04-26T15:12:59.108Z,24.87
2018-04-26T15:15:29.960Z,23.83
2018-04-26T15:18:00.688Z,23.70
2018-04-26T15:20:31.483Z,23.34
2018-04-26T15:23:02.279Z,23.10
2018-04-26T15:25:33.049Z,23.74
2018-04-26T15:28:03.848Z,22.86
2018-04-26T15:30:34.651Z,23.83
2018-04-26T15:33:05.462Z,25.54
2018-04-26T15:35:36.288Z,26.01
2018-04-26T15:38:07.151Z,27.06
2018-04-26T15:40:37.934Z,28.62
2018-04-26T15:43:08.739Z,28.42
2018-04-26T15:45:39.527Z,28.37
2018-04-26T15:48:10.308Z,29.83
2018-04-26T15:50:56.027Z,28.28
2018-04-26T15:53:39.205Z,28.25
2018-04-26T15:59:31.432Z,27.77
2018-04-26T16:05:26.915Z,28.19
2018-04-26T16:11:28.401Z,29.07
2018-04-26T16:14:05.339Z,29.11
2018-04-26T16:20:17.319Z,31.10
2018-04-26T16:23:06.732Z,32.45
2018-04-26T16:25:49.794Z,33.63
2018-04-26T16:28:39.236Z,33.08
2018-04-26T16:31:28.670Z,32.99
2018-04-26T16:34:11.779Z,32.76
2018-04-26T16:36:55.023Z,34.09
2018-04-26T16:39:25.780Z,33.10
2018-04-26T16:41:56.579Z,33.08
2018-04-26T16:44:27.434Z,33.37
2018-04-26T16:46:58.107Z,33.93
2018-04-26T16:49:28.883Z,33.72
2018-04-26T16:51:59.660Z,32.86
2018-04-26T16:54:30.431Z,33.24
2018-04-26T16:57:01.208Z,34.13
2018-04-26T16:59:31.960Z,34.61
2018-04-26T17:02:02.761Z,34.71
2018-04-26T17:04:33.595Z,34.94
2018-04-26T17:07:04.459Z,35.19
2018-04-26T17:09:35.107Z,34.88
2018-04-26T17:12:05.908Z,34.96
2018-04-26T17:14:36.672Z,34.88
2018-04-26T17:17:07.515Z,35.91
2018-04-26T17:19:38.223Z,34.60
2018-04-26T17:22:09.027Z,35.38
2018-04-26T17:24:39.807Z,35.16
2018-04-26T17:27:10.637Z,35.04
2018-04-26T17:29:41.415Z,34.44
2018-04-26T17:32:12.235Z,35.48
2018-04-26T17:34:43.026Z,36.09
2018-04-26T17:37:13.831Z,35.75
2018-04-26T17:39:44.627Z,36.24
2018-04-26T17:42:15.440Z,36.89
2018-04-26T17:44:46.191Z,37.22
2018-04-26T17:47:17.012Z,38.49
2018-04-26T17:49:47.777Z,38.73
2018-04-26T17:52:18.555Z,38.35
2018-04-26T17:54:49.312Z,37.85
2018-04-26T17:57:20.105Z,38.62
2018-04-26T17:59:50.864Z,38.40
2018-04-26T18:02:21.647Z,38.99
2018-04-26T18:04:52.412Z,39.26
2018-04-26T18:07:23.183Z,39.86
2018-04-26T18:09:53.964Z,40.12
2018-04-26T18:12:24.743Z,40.25
2018-04-26T18:14:55.503Z,40.72
2018-04-26T18:17:26.301Z,41.13
2018-04-26T18:20:01.043Z,41.04
2018-04-26T18:22:27.936Z,42.00
2018-04-26T18:24:58.720Z,41.65
2018-04-26T18:27:29.600Z,43.10
2018-04-26T18:30:00.361Z,43.13
2018-04-26T18:32:31.139Z,43.80
2018-04-26T18:35:01.955Z,44.24
2018-04-26T18:37:32.760Z,44.35
2018-04-26T18:40:03.605Z,45.08
2018-04-26T18:42:34.448Z,45.02
2018-04-26T18:45:05.276Z,45.12
2018-04-26T18:47:42.984Z,45.28
2018-04-26T18:50:14.800Z,45.67
2018-04-26T18:52:45.600Z,46.64
2018-04-26T18:55:16.373Z,46.43
2018-04-26T18:57:47.209Z,46.00
2018-04-26T19:00:17.988Z,46.54
2018-04-26T19:02:48.813Z,47.12
2018-04-26T19:05:19.575Z,47.32
2018-04-26T19:07:50.364Z,47.34
2018-04-26T19:10:21.131Z,47.49
2018-04-26T19:12:51.991Z,48.83
2018-04-26T19:15:22.759Z,49.69
2018-04-26T19:17:53.616Z,50.31
2018-04-26T19:20:24.492Z,50.71
2018-04-26T19:22:55.341Z,51.69
2018-04-26T19:25:26.156Z,52.35
2018-04-26T19:27:57.008Z,52.58
2018-04-26T19:30:28.051Z,52.91
2018-04-26T19:32:59.127Z,52.36
2018-04-26T19:35:30.363Z,53.38
2018-04-26T19:38:03.627Z,53.20
2018-04-26T19:40:35.172Z,53.36
2018-04-26T19:43:06.206Z,54.74
2018-04-26T19:45:37.009Z,55.40
2018-04-26T19:48:07.955Z,55.87
2018-04-26T19:50:38.836Z,55.94
2018-04-26T19:53:09.693Z,54.95
2018-04-26T19:55:40.535Z,55.69
2018-04-26T19:58:11.344Z,56.66
2018-04-26T20:00:42.127Z,57.16
2018-04-26T20:03:13.054Z,57.12
2018-04-26T20:05:43.859Z,58.78
2018-04-26T20:08:14.707Z,58.73
2018-04-26T20:10:45.559Z,60.08
2018-04-26T20:13:16.352Z,59.85
2018-04-26T20:15:47.132Z,60.27
2018-04-26T20:18:17.959Z,61.22
2018-04-26T20:20:48.875Z,62.23
2018-04-26T20:23:19.647Z,62.64
2018-04-26T20:25:50.409Z,63.13
2018-04-26T20:30:51.912Z,64.12
2018-04-26T20:33:22.738Z,63.74
2018-04-26T20:35:53.516Z,63.77
2018-04-26T20:38:24.467Z,63.91
2018-04-26T20:40:55.256Z,63.87
2018-04-26T20:43:26.075Z,63.51
2018-04-26T20:45:56.943Z,63.87
2018-04-26T20:48:39.890Z,64.72
2018-04-26T20:51:10.730Z,65.57
2018-04-26T20:53:41.512Z,66.59
2018-04-26T20:56:12.850Z,67.08
2018-04-26T20:58:43.637Z,67.63
2018-04-26T21:01:14.419Z,68.50
2018-04-26T21:03:45.244Z,68.99
2018-04-26T21:06:16.023Z,68.88
2018-04-26T21:08:46.843Z,69.62
2018-04-26T21:11:17.666Z,69.56
2018-04-26T21:13:48.467Z,70.01
2018-04-26T21:16:19.239Z,71.41
2018-04-26T21:18:50.024Z,71.46
2018-04-26T21:21:20.805Z,72.66
2018-04-26T21:23:51.613Z,72.89
2018-04-26T21:26:22.377Z,71.53
2018-04-26T21:28:53.169Z,70.34
2018-04-26T21:31:23.928Z,69.63
2018-04-26T21:33:54.717Z,68.49
2018-04-26T21:36:25.485Z,67.58
2018-04-26T21:38:56.308Z,67.09
2018-04-26T21:41:27.084Z,67.12
2018-04-26T21:43:57.853Z,67.66
2018-04-26T21:46:28.615Z,68.24
2018-04-26T21:48:59.430Z,68.57
2018-04-26T21:51:36.268Z,69.64
2018-04-26T21:54:13.108Z,69.70
2018-04-26T21:56:50.093Z,70.03
2018-04-26T21:59:26.976Z,70.03
2018-04-26T22:02:03.961Z,70.43
2018-04-26T22:07:42.349Z,71.21
2018-04-26T22:10:13.163Z,71.42
2018-04-26T22:12:43.935Z,71.05
2018-04-26T22:15:14.729Z,70.70
2018-04-26T22:17:45.511Z,70.30
2018-04-26T22:20:16.325Z,70.88
2018-04-26T22:22:47.105Z,71.47
2018-04-26T22:25:17.924Z,71.45
2018-04-26T22:27:48.693Z,70.86
2018-04-26T22:30:19.483Z,70.83
2018-04-26T22:32:50.239Z,70.81
2018-04-26T22:35:21.069Z,70.73
2018-04-26T22:37:51.883Z,71.44
2018-04-26T22:40:22.681Z,72.10
2018-04-26T22:42:53.447Z,72.81
2018-04-26T22:45:24.263Z,73.52
2018-04-26T22:47:55.052Z,73.85
2018-04-26T22:50:25.839Z,74.70
2018-04-26T22:52:56.624Z,74.84
2018-04-26T22:55:27.436Z,74.73
2018-04-26T22:57:58.196Z,75.06
2018-04-26T23:00:29.015Z,74.68
2018-04-26T23:02:59.796Z,74.92
2018-04-26T23:05:30.682Z,74.49
2018-04-26T23:08:01.456Z,74.23
2018-04-26T23:10:32.277Z,74.26
2018-04-26T23:13:03.059Z,73.67
2018-04-26T23:15:33.850Z,73.32
2018-04-26T23:18:04.639Z,73.27
2018-04-26T23:20:35.426Z,72.97
2018-04-26T23:23:06.197Z,72.45
2018-04-26T23:25:37.005Z,72.41
2018-04-26T23:28:07.767Z,73.23
2018-04-26T23:30:38.567Z,74.10
2018-04-26T23:33:09.380Z,74.20
2018-04-26T23:35:40.196Z,74.48
2018-04-26T23:38:10.969Z,74.67
2018-04-26T23:40:41.772Z,74.18
2018-04-26T23:43:12.527Z,74.39
2018-04-26T23:45:43.344Z,75.04
2018-04-26T23:48:14.176Z,75.56
2018-04-26T23:50:44.982Z,75.83
2018-04-26T23:53:15.735Z,76.09
2018-04-26T23:55:46.547Z,76.16
2018-04-26T23:58:17.323Z,76.78
